Time;durP1;ratioP1;P1;durP2;ratioP2;P2;SDS_P1;SDS_P2;PMS_P1;PMS_P2;Temp;Humidity;BMP_temperature;BMP_pressure;BME280_temperature;BME280_humidity;BME280_pressure;Samples;Min_cycle;Max_cycle;Signal;HPM_P1;HPM_P2
2022/05/29 00:01:16;;;;;;;9.73;2.10;;;10.50;99.90;;;;;;5055367;28;24109;-61
2022/05/29 00:03:42;;;;;;;13.20;2.13;;;10.50;99.90;;;;;;5053623;28;25140;-62
2022/05/29 00:06:10;;;;;;;9.85;2.15;;;10.40;99.90;;;;;;5056005;28;25190;-62
2022/05/29 00:08:39;;;;;;;7.75;2.50;;;10.40;99.90;;;;;;5054525;28;25148;-60
2022/05/29 00:11:07;;;;;;;13.70;2.15;;;10.40;99.90;;;;;;5057315;28;25139;-62
2022/05/29 00:13:32;;;;;;;12.30;2.10;;;10.40;99.90;;;;;;5054621;28;25067;-65
2022/05/29 00:15:58;;;;;;;6.45;2.55;;;10.30;99.90;;;;;;5052122;28;25070;-62
2022/05/29 00:18:25;;;;;;;8.88;2.85;;;10.30;99.90;;;;;;5055115;28;25094;-61
2022/05/29 00:20:56;;;;;;;10.23;2.17;;;10.30;99.90;;;;;;5052404;28;25047;-62
2022/05/29 00:23:22;;;;;;;12.55;2.45;;;10.40;99.90;;;;;;5054345;28;25062;-61
2022/05/29 00:25:51;;;;;;;18.55;3.35;;;10.40;99.90;;;;;;5056369;28;25053;-61
2022/05/29 00:28:17;;;;;;;10.77;2.38;;;10.30;99.90;;;;;;5055382;28;25143;-62
2022/05/29 00:30:43;;;;;;;7.45;3.10;;;10.30;99.90;;;;;;5055158;28;25149;-61
2022/05/29 00:33:09;;;;;;;10.02;2.55;;;10.20;99.90;;;;;;5056308;28;25064;-62
2022/05/29 00:35:37;;;;;;;9.35;2.70;;;10.20;99.90;;;;;;5065889;28;25068;-62
2022/05/29 00:38:03;;;;;;;11.25;2.47;;;10.30;99.90;;;;;;5060280;28;25053;-61
2022/05/29 00:40:36;;;;;;;8.65;2.42;;;10.20;99.90;;;;;;5056403;28;25079;-61
2022/05/29 00:43:02;;;;;;;7.95;2.08;;;10.20;99.90;;;;;;5055933;28;25078;-62
2022/05/29 00:45:31;;;;;;;9.63;2.35;;;10.20;99.90;;;;;;5056732;28;25079;-62
2022/05/29 00:47:57;;;;;;;10.05;2.05;;;10.20;99.90;;;;;;5056782;28;25126;-61
2022/05/29 00:50:23;;;;;;;12.43;2.55;;;10.20;99.90;;;;;;5053842;28;25066;-63
2022/05/29 00:52:51;;;;;;;6.78;2.05;;;10.10;99.90;;;;;;5051261;28;25048;-60
2022/05/29 00:55:26;;;;;;;16.00;3.05;;;10.10;99.90;;;;;;5054943;28;25078;-62
2022/05/29 00:57:55;;;;;;;14.43;2.75;;;10.10;99.90;;;;;;5056931;28;25082;-63
2022/05/29 01:00:27;;;;;;;11.98;2.50;;;10.10;99.90;;;;;;5055503;28;25124;-62
2022/05/29 01:02:58;;;;;;;9.40;2.40;;;10.00;99.90;;;;;;5054515;28;25178;-62
2022/05/29 01:05:26;;;;;;;12.50;1.98;;;10.00;99.90;;;;;;5054619;28;25065;-62
2022/05/29 01:07:57;;;;;;;10.27;2.70;;;10.00;99.90;;;;;;5053272;28;25198;-62
2022/05/29 01:10:36;;;;;;;8.68;2.22;;;10.00;99.90;;;;;;5055878;28;25100;-62
2022/05/29 01:13:38;;;;;;;18.48;2.80;;;9.90;99.90;;;;;;5056252;28;25085;-63
2022/05/29 01:16:20;;;;;;;10.32;2.50;;;9.90;99.90;;;;;;5058499;28;25066;-62
2022/05/29 01:19:13;;;;;;;19.55;3.10;;;9.90;99.90;;;;;;5052661;28;25073;-62
2022/05/29 01:22:07;;;;;;;13.23;2.38;;;9.90;99.90;;;;;;5051452;28;25073;-61
2022/05/29 01:24:38;;;;;;;10.20;2.40;;;9.90;99.90;;;;;;5054207;28;25097;-61
2022/05/29 01:27:39;;;;;;;9.75;2.30;;;9.90;99.90;;;;;;5054208;28;25063;-61
2022/05/29 01:30:19;;;;;;;10.85;2.55;;;9.90;99.90;;;;;;5057648;28;25066;-62
2022/05/29 01:32:59;;;;;;;12.13;2.08;;;9.90;99.90;;;;;;5053861;28;25109;-62
2022/05/29 01:35:30;;;;;;;11.05;2.33;;;9.90;99.90;;;;;;5054877;28;25060;-62
2022/05/29 01:38:16;;;;;;;9.70;2.33;;;9.90;99.90;;;;;;5055745;28;25074;-64
2022/05/29 01:40:54;;;;;;;12.13;2.42;;;9.90;99.90;;;;;;5052485;28;25115;-61
2022/05/29 01:43:37;;;;;;;10.00;2.17;;;9.80;99.90;;;;;;5052554;28;25083;-61
2022/05/29 01:46:11;;;;;;;11.40;2.25;;;9.80;99.90;;;;;;5053376;28;25068;-61
2022/05/29 01:48:51;;;;;;;10.77;2.22;;;9.90;99.90;;;;;;5048520;28;25068;-61
2022/05/29 01:51:20;;;;;;;15.20;2.70;;;9.90;99.90;;;;;;5051484;28;25104;-62
2022/05/29 01:54:03;;;;;;;8.73;2.17;;;9.90;99.90;;;;;;5053117;28;25142;-62
2022/05/29 01:56:32;;;;;;;11.02;3.08;;;10.00;99.90;;;;;;5052469;28;25059;-62
2022/05/29 01:59:04;;;;;;;9.60;2.10;;;10.00;99.90;;;;;;5052995;28;25136;-60
2022/05/29 02:01:34;;;;;;;16.45;2.75;;;10.00;99.90;;;;;;5054236;28;25085;-62
2022/05/29 02:04:06;;;;;;;13.95;2.58;;;10.00;99.90;;;;;;5053653;28;25108;-62
2022/05/29 02:09:27;;;;;;;20.63;2.83;;;9.90;99.90;;;;;;5053168;28;25048;-60
2022/05/29 02:11:58;;;;;;;11.95;2.42;;;9.90;99.90;;;;;;5051812;28;25071;-61
2022/05/29 02:14:31;;;;;;;15.13;2.75;;;9.90;99.90;;;;;;5053351;28;25072;-62
2022/05/29 02:17:04;;;;;;;7.55;2.10;;;9.90;99.90;;;;;;5053271;28;25050;-62
2022/05/29 02:19:37;;;;;;;14.25;2.47;;;9.80;99.90;;;;;;5052845;28;25076;-61
2022/05/29 02:22:12;;;;;;;6.22;2.15;;;9.90;99.90;;;;;;5052134;28;25080;-61
2022/05/29 02:24:49;;;;;;;10.43;2.22;;;9.90;99.90;;;;;;5048656;28;25060;-62
2022/05/29 02:27:26;;;;;;;13.35;2.17;;;10.00;99.90;;;;;;5053338;28;25128;-62
2022/05/29 02:29:54;;;;;;;14.38;2.67;;;10.00;99.90;;;;;;5053406;28;25076;-63
2022/05/29 02:32:38;;;;;;;11.73;2.38;;;10.00;99.90;;;;;;5052508;28;25064;-63
2022/05/29 02:35:08;;;;;;;7.32;1.85;;;10.00;99.90;;;;;;5049702;28;25056;-61
2022/05/29 02:38:05;;;;;;;9.82;2.65;;;10.00;99.90;;;;;;5053156;28;25100;-60
2022/05/29 02:40:58;;;;;;;11.52;2.30;;;10.10;99.90;;;;;;5049311;28;25125;-62
2022/05/29 02:43:51;;;;;;;11.55;2.50;;;10.20;99.90;;;;;;5052505;28;25124;-61
2022/05/29 02:46:36;;;;;;;15.25;2.58;;;10.20;99.90;;;;;;5053597;28;25091;-61
2022/05/29 02:49:11;;;;;;;11.80;2.97;;;10.20;99.90;;;;;;5051376;28;25069;-61
2022/05/29 02:51:49;;;;;;;5.13;2.00;;;10.20;99.90;;;;;;5053142;28;25068;-63
2022/05/29 02:54:29;;;;;;;11.60;3.45;;;10.20;99.90;;;;;;5051250;28;25144;-62
2022/05/29 02:56:57;;;;;;;11.65;2.58;;;10.20;99.90;;;;;;5051891;28;25123;-62
2022/05/29 02:59:26;;;;;;;6.90;2.03;;;10.20;99.90;;;;;;5052358;28;25102;-62
2022/05/29 03:02:13;;;;;;;14.95;2.13;;;10.40;99.90;;;;;;5053132;28;25090;-62
2022/05/29 03:05:06;;;;;;;11.88;2.67;;;10.20;99.90;;;;;;5050751;28;25062;-60
2022/05/29 03:07:42;;;;;;;7.13;2.10;;;10.20;99.90;;;;;;5057675;28;25082;-61
2022/05/29 03:10:25;;;;;;;14.27;2.78;;;10.30;99.90;;;;;;5056984;28;25150;-61
2022/05/29 03:13:01;;;;;;;12.52;2.47;;;10.40;99.90;;;;;;5053960;28;25159;-63
2022/05/29 03:15:39;;;;;;;12.88;2.55;;;10.40;99.90;;;;;;5052820;28;25112;-62
2022/05/29 03:18:10;;;;;;;8.07;2.70;;;10.50;99.90;;;;;;5051050;28;25127;-62
2022/05/29 03:21:02;;;;;;;11.10;2.05;;;10.50;99.90;;;;;;5053505;28;25165;-62
2022/05/29 03:23:31;;;;;;;8.23;2.33;;;10.50;99.90;;;;;;5055466;28;25078;-63
2022/05/29 03:26:01;;;;;;;11.75;2.38;;;10.50;99.90;;;;;;5057688;28;25090;-62
2022/05/29 03:28:48;;;;;;;15.70;2.60;;;10.50;99.90;;;;;;5054701;28;25055;-62
2022/05/29 03:31:18;;;;;;;10.52;2.30;;;10.50;99.90;;;;;;5051731;28;25100;-62
2022/05/29 03:33:48;;;;;;;11.80;2.80;;;10.60;99.90;;;;;;5052187;28;25069;-62
2022/05/29 03:36:16;;;;;;;9.35;2.03;;;10.70;99.90;;;;;;5053577;28;25074;-61
2022/05/29 03:38:45;;;;;;;7.65;2.28;;;10.60;99.90;;;;;;5053478;28;25071;-62
2022/05/29 03:41:13;;;;;;;12.18;2.35;;;10.70;99.90;;;;;;5052574;28;25147;-62
2022/05/29 03:43:40;;;;;;;8.35;2.25;;;10.60;99.90;;;;;;5053325;28;25131;-61
2022/05/29 03:46:06;;;;;;;12.23;2.35;;;10.70;99.90;;;;;;5052796;28;25077;-62
2022/05/29 03:48:32;;;;;;;9.90;2.53;;;10.70;99.90;;;;;;5051864;28;25152;-61
2022/05/29 03:51:06;;;;;;;11.85;2.78;;;10.70;99.90;;;;;;5053219;28;25057;-62
2022/05/29 03:53:32;;;;;;;9.65;2.70;;;10.70;99.90;;;;;;5050576;28;25075;-61
2022/05/29 03:55:57;;;;;;;7.97;2.17;;;10.70;99.90;;;;;;5053982;28;25126;-62
2022/05/29 03:58:23;;;;;;;9.73;2.28;;;10.80;99.90;;;;;;5053997;28;25055;-61
2022/05/29 04:00:49;;;;;;;9.52;2.95;;;10.80;99.90;;;;;;5052810;28;25134;-62
2022/05/29 04:03:14;;;;;;;5.63;2.53;;;10.80;99.90;;;;;;5054576;28;25074;-62
2022/05/29 04:05:40;;;;;;;10.13;2.35;;;10.80;99.90;;;;;;5057013;28;25128;-62
2022/05/29 04:13:40;;;;;;;5.95;1.77;;;10.70;99.90;;;;;;5054767;28;25128;-61
2022/05/29 04:16:05;;;;;;;12.77;2.22;;;10.60;99.90;;;;;;5056384;28;25123;-62
2022/05/29 04:18:31;;;;;;;7.35;2.13;;;10.50;99.90;;;;;;5054443;28;25078;-61
2022/05/29 04:20:56;;;;;;;8.40;1.98;;;10.50;99.90;;;;;;5055120;28;25094;-63
2022/05/29 04:23:22;;;;;;;6.68;1.75;;;10.40;99.90;;;;;;5054575;28;25081;-64
2022/05/29 04:25:48;;;;;;;6.07;1.65;;;10.30;99.90;;;;;;5052571;28;25057;-62
2022/05/29 04:28:14;;;;;;;6.40;1.25;;;10.40;99.90;;;;;;5052345;28;25072;-60
2022/05/29 04:30:40;;;;;;;5.00;1.55;;;10.30;99.90;;;;;;5049441;28;25087;-61
2022/05/29 04:33:05;;;;;;;4.75;1.90;;;10.20;99.90;;;;;;5049922;28;25129;-60
2022/05/29 04:35:40;;;;;;;4.68;1.90;;;10.20;99.90;;;;;;5052755;28;25098;-62
2022/05/29 04:38:06;;;;;;;3.58;1.50;;;10.10;99.90;;;;;;5051468;28;25108;-61
2022/05/29 04:40:32;;;;;;;3.55;1.30;;;10.20;99.90;;;;;;5054609;28;25051;-62
2022/05/29 04:42:57;;;;;;;4.07;1.30;;;10.20;99.90;;;;;;5056879;28;25063;-62
2022/05/29 04:45:23;;;;;;;3.25;1.23;;;10.30;99.90;;;;;;5055982;28;25086;-63
2022/05/29 04:47:48;;;;;;;8.85;1.63;;;10.20;99.90;;;;;;5055782;28;25094;-62
2022/05/29 04:50:14;;;;;;;3.60;1.50;;;10.30;99.90;;;;;;5060173;28;25064;-62
2022/05/29 04:52:40;;;;;;;4.75;1.35;;;10.40;99.90;;;;;;5057850;28;25072;-61
2022/05/29 04:55:08;;;;;;;8.13;1.70;;;10.40;99.90;;;;;;5056250;28;25099;-62
2022/05/29 04:57:34;;;;;;;7.50;1.52;;;10.50;99.90;;;;;;5055995;28;25069;-63
2022/05/29 04:59:59;;;;;;;11.43;2.47;;;10.40;99.90;;;;;;5053931;28;25077;-63
2022/05/29 05:02:26;;;;;;;7.18;1.75;;;10.40;99.90;;;;;;5052425;28;25057;-61
2022/05/29 05:04:51;;;;;;;6.10;1.52;;;10.50;99.90;;;;;;5052322;28;25065;-63
2022/05/29 05:07:17;;;;;;;8.20;1.80;;;10.40;99.90;;;;;;5053741;28;25185;-62
2022/05/29 05:09:43;;;;;;;3.60;1.42;;;10.40;99.90;;;;;;5054374;28;25158;-62
2022/05/29 05:12:08;;;;;;;2.60;1.38;;;10.40;99.90;;;;;;5051305;28;25046;-62
2022/05/29 05:14:35;;;;;;;7.88;1.60;;;10.40;99.90;;;;;;5049083;28;25067;-61
2022/05/29 05:17:00;;;;;;;6.75;1.88;;;10.50;99.90;;;;;;5054139;28;25074;-61
2022/05/29 05:19:26;;;;;;;8.82;2.55;;;10.50;99.90;;;;;;5054841;28;25099;-61
2022/05/29 05:21:52;;;;;;;12.05;2.17;;;10.50;99.90;;;;;;5054821;28;25123;-61
2022/05/29 05:24:18;;;;;;;6.57;2.38;;;10.60;99.90;;;;;;5053087;28;25074;-62
2022/05/29 05:26:44;;;;;;;6.38;2.03;;;10.60;99.90;;;;;;5054475;28;25159;-62
2022/05/29 05:29:10;;;;;;;5.95;1.73;;;10.60;99.90;;;;;;5053816;28;25099;-64
2022/05/29 05:31:35;;;;;;;6.97;1.98;;;10.70;99.90;;;;;;5054979;28;25093;-62
2022/05/29 05:34:02;;;;;;;8.98;1.70;;;10.70;99.90;;;;;;5053256;28;25132;-62
2022/05/29 05:36:27;;;;;;;10.57;2.10;;;10.70;99.90;;;;;;5060066;28;25075;-61
2022/05/29 05:38:53;;;;;;;4.70;1.85;;;10.60;99.90;;;;;;5056386;28;25110;-60
2022/05/29 05:41:20;;;;;;;5.53;1.90;;;10.70;99.90;;;;;;5053738;28;25061;-62
2022/05/29 05:43:45;;;;;;;6.05;1.55;;;10.60;99.90;;;;;;5050638;28;25061;-62
2022/05/29 05:46:13;;;;;;;2.92;1.35;;;10.70;99.90;;;;;;5052438;28;25068;-63
2022/05/29 05:48:39;;;;;;;6.93;1.42;;;10.60;99.90;;;;;;5051477;28;25058;-62
2022/05/29 05:51:06;;;;;;;3.85;1.45;;;10.50;99.90;;;;;;5053319;28;25084;-61
2022/05/29 05:53:33;;;;;;;3.28;1.58;;;10.60;99.90;;;;;;5053253;28;25046;-63
2022/05/29 05:56:03;;;;;;;7.60;1.77;;;10.70;99.90;;;;;;5051208;28;25091;-61
2022/05/29 05:58:29;;;;;;;5.65;1.27;;;10.70;99.90;;;;;;5050989;28;25116;-61
2022/05/29 06:00:54;;;;;;;8.63;2.03;;;10.90;99.90;;;;;;5053290;28;25115;-61
2022/05/29 06:03:20;;;;;;;4.88;1.60;;;10.80;99.90;;;;;;5050315;28;25076;-61
2022/05/29 06:05:48;;;;;;;6.38;1.98;;;10.80;99.90;;;;;;5051236;28;25087;-62
2022/05/29 06:08:14;;;;;;;6.05;1.55;;;10.80;99.90;;;;;;5053292;28;25077;-61
2022/05/29 06:10:39;;;;;;;10.73;1.90;;;10.90;99.90;;;;;;5054675;28;25064;-61
2022/05/29 06:13:06;;;;;;;7.15;1.42;;;10.80;99.90;;;;;;5053590;28;25070;-60
2022/05/29 06:15:32;;;;;;;7.15;1.88;;;10.80;99.90;;;;;;5053622;28;25059;-61
2022/05/29 06:17:57;;;;;;;3.53;1.40;;;10.80;99.90;;;;;;5052911;28;25070;-61
2022/05/29 06:20:24;;;;;;;2.45;0.93;;;10.80;99.90;;;;;;5052991;28;25091;-61
2022/05/29 06:22:50;;;;;;;6.53;1.35;;;10.70;99.90;;;;;;5052968;28;25051;-61
2022/05/29 06:25:16;;;;;;;4.28;1.30;;;10.60;99.90;;;;;;5049969;28;25064;-61
2022/05/29 06:27:43;;;;;;;2.45;0.90;;;10.80;99.90;;;;;;5049966;28;25104;-61
2022/05/29 06:30:12;;;;;;;4.93;1.85;;;10.80;99.90;;;;;;5052312;28;25051;-61
2022/05/29 06:32:38;;;;;;;4.70;1.80;;;10.60;99.90;;;;;;5052707;28;25136;-64
2022/05/29 06:35:06;;;;;;;4.72;1.20;;;10.60;99.90;;;;;;5053397;28;25060;-62
2022/05/29 06:37:31;;;;;;;3.63;1.10;;;10.50;99.90;;;;;;5051945;28;25067;-63
2022/05/29 06:39:58;;;;;;;2.45;0.90;;;10.40;99.90;;;;;;5052593;28;25056;-62
2022/05/29 06:42:24;;;;;;;5.35;1.13;;;10.50;99.90;;;;;;5052991;28;25058;-62
2022/05/29 06:44:50;;;;;;;4.00;1.52;;;10.50;99.90;;;;;;5052376;28;25064;-62
2022/05/29 06:47:15;;;;;;;4.97;1.20;;;10.60;99.90;;;;;;5052899;28;25106;-61
2022/05/29 06:49:41;;;;;;;5.50;1.35;;;10.80;99.90;;;;;;5054307;28;25050;-62
2022/05/29 06:52:11;;;;;;;5.60;1.48;;;10.90;99.90;;;;;;5052236;28;25140;-61
2022/05/29 06:54:37;;;;;;;5.57;1.45;;;11.20;99.90;;;;;;5052159;28;25077;-63
2022/05/29 06:57:06;;;;;;;7.78;1.88;;;11.00;99.90;;;;;;5049452;28;25071;-62
2022/05/29 07:06:58;;;;;;;5.40;1.55;;;11.00;99.90;;;;;;5051460;28;25045;-63
2022/05/29 07:08:05;;;;;;;2.38;1.20;;;11.20;99.90;;;;;;5038913;28;25055;-63
2022/05/29 07:10:33;;;;;;;6.10;1.70;;;11.40;99.90;;;;;;5048832;28;25083;-63
2022/05/29 07:13:01;;;;;;;5.15;1.27;;;11.50;99.90;;;;;;5047867;28;25066;-62
2022/05/29 07:15:27;;;;;;;4.43;1.17;;;11.50;99.90;;;;;;5054443;28;25075;-63
2022/05/29 07:17:52;;;;;;;8.00;1.63;;;11.40;99.90;;;;;;5047308;28;25053;-62
2022/05/29 07:20:18;;;;;;;5.45;1.75;;;11.30;99.90;;;;;;5050322;28;25055;-62
2022/05/29 07:22:44;;;;;;;5.13;1.73;;;11.50;99.90;;;;;;5050339;28;25063;-62
2022/05/29 07:25:11;;;;;;;6.97;1.58;;;11.50;99.90;;;;;;5050668;28;25078;-62
2022/05/29 07:27:38;;;;;;;4.15;1.20;;;11.60;99.90;;;;;;5050824;28;25115;-62
2022/05/29 07:30:05;;;;;;;6.05;1.98;;;11.70;99.90;;;;;;5051518;28;25053;-60
2022/05/29 07:32:31;;;;;;;7.75;2.10;;;11.60;99.90;;;;;;5047546;28;25110;-62
2022/05/29 07:34:57;;;;;;;9.30;2.03;;;11.60;99.90;;;;;;5047936;28;25053;-60
2022/05/29 07:37:23;;;;;;;9.40;2.10;;;11.60;99.90;;;;;;5046915;28;25081;-59
2022/05/29 07:39:51;;;;;;;6.47;2.75;;;11.90;99.90;;;;;;5049763;28;25156;-61
2022/05/29 07:45:02;;;;;;;6.93;2.10;;;11.60;99.90;;;;;;5052760;28;25152;-61
2022/05/29 07:47:34;;;;;;;8.35;2.03;;;11.70;99.90;;;;;;5050510;28;25051;-61
2022/05/29 07:49:59;;;;;;;9.27;2.35;;;11.60;99.90;;;;;;5049124;28;25066;-60
2022/05/29 07:52:26;;;;;;;7.43;2.17;;;11.50;99.90;;;;;;5050866;28;25072;-60
2022/05/29 07:54:52;;;;;;;13.98;2.33;;;11.30;99.90;;;;;;5055767;28;25066;-61
2022/05/29 07:57:18;;;;;;;10.77;2.72;;;11.40;99.90;;;;;;5056361;28;25046;-61
2022/05/29 07:59:43;;;;;;;7.28;2.00;;;11.20;99.90;;;;;;5056434;28;25125;-61
2022/05/29 08:02:09;;;;;;;9.15;2.70;;;11.30;99.90;;;;;;5054780;28;25164;-60
2022/05/29 08:04:35;;;;;;;11.80;2.10;;;11.40;99.90;;;;;;5054325;28;25063;-61
2022/05/29 08:07:00;;;;;;;15.18;3.35;;;11.50;99.90;;;;;;5051840;28;25112;-61
2022/05/29 08:09:26;;;;;;;9.90;2.55;;;11.60;99.90;;;;;;5052713;28;25055;-62
2022/05/29 08:11:52;;;;;;;7.32;2.35;;;12.00;99.90;;;;;;5052827;28;25149;-62
2022/05/29 08:14:17;;;;;;;8.70;2.13;;;12.00;99.90;;;;;;5053987;28;25134;-61
2022/05/29 08:16:43;;;;;;;7.50;2.30;;;12.50;99.90;;;;;;5058475;28;25060;-61
2022/05/29 08:19:09;;;;;;;4.28;1.88;;;12.60;99.90;;;;;;5060114;28;25083;-62
2022/05/29 08:21:34;;;;;;;5.68;1.73;;;12.50;99.90;;;;;;5057651;28;25067;-63
2022/05/29 08:32:15;;;;;;;5.78;2.03;;;11.70;99.90;;;;;;5052798;28;25066;-62
2022/05/29 08:34:43;;;;;;;8.50;1.63;;;11.70;99.90;;;;;;5056578;28;25141;-63
2022/05/29 08:37:09;;;;;;;6.53;1.60;;;11.80;99.90;;;;;;5061994;28;25067;-62
2022/05/29 08:39:35;;;;;;;4.80;1.30;;;12.00;99.90;;;;;;5058543;28;25074;-62
2022/05/29 08:42:02;;;;;;;9.68;2.33;;;12.40;99.90;;;;;;5054477;28;25139;-63
2022/05/29 08:44:35;;;;;;;6.05;2.35;;;12.40;99.90;;;;;;5054447;28;25062;-61
2022/05/29 08:47:02;;;;;;;8.82;2.60;;;12.30;99.90;;;;;;5056556;28;25089;-63
2022/05/29 08:49:37;;;;;;;12.00;2.03;;;12.40;99.90;;;;;;5054915;28;25097;-63
2022/05/29 08:52:14;;;;;;;7.55;2.30;;;12.30;99.90;;;;;;5054644;28;25079;-63
2022/05/29 08:54:46;;;;;;;6.97;1.60;;;12.20;99.90;;;;;;5052329;28;25155;-61
2022/05/29 08:57:16;;;;;;;5.75;1.40;;;12.00;99.90;;;;;;5054005;28;25124;-61
2022/05/29 08:59:58;;;;;;;4.55;1.33;;;12.30;99.90;;;;;;5058854;28;25059;-62
2022/05/29 09:02:43;;;;;;;7.40;1.70;;;12.60;99.90;;;;;;5057785;28;25065;-61
2022/05/29 09:05:16;;;;;;;4.55;1.30;;;13.40;99.90;;;;;;5050951;28;25153;-62
2022/05/29 09:07:43;;;;;;;7.78;1.45;;;13.10;99.90;;;;;;5054214;28;25051;-62
2022/05/29 09:10:22;;;;;;;7.68;2.00;;;12.70;99.90;;;;;;5054198;28;25081;-60
2022/05/29 09:12:52;;;;;;;8.18;2.65;;;12.70;99.90;;;;;;5053892;28;25111;-61
2022/05/29 09:15:36;;;;;;;5.80;1.60;;;12.80;99.90;;;;;;5051597;28;25063;-62
2022/05/29 09:18:11;;;;;;;5.05;2.10;;;12.40;99.90;;;;;;5055274;28;25058;-60
2022/05/29 09:20:43;;;;;;;8.60;1.90;;;12.50;99.90;;;;;;5050813;28;25133;-62
2022/05/29 09:23:14;;;;;;;7.50;1.67;;;12.30;99.90;;;;;;5049511;28;25061;-61
2022/05/29 09:25:43;;;;;;;5.88;1.80;;;12.50;99.90;;;;;;5052077;28;25103;-65
2022/05/29 09:28:32;;;;;;;7.32;2.67;;;12.60;99.90;;;;;;5048518;28;25076;-62
2022/05/29 09:31:14;;;;;;;9.18;2.15;;;12.50;99.90;;;;;;5047245;28;25114;-62
2022/05/29 09:33:40;;;;;;;;;;;12.60;99.90;;;;;;5049088;28;25046;-61
2022/05/29 09:36:24;;;;;;;7.32;1.70;;;12.80;99.90;;;;;;5049330;28;25138;-65
2022/05/29 09:38:55;;;;;;;6.68;2.00;;;12.80;99.90;;;;;;5049249;28;25161;-61
2022/05/29 09:41:26;;;;;;;7.63;1.75;;;12.90;99.90;;;;;;5050437;28;25053;-63
2022/05/29 09:44:04;;;;;;;9.90;2.50;;;13.00;99.90;;;;;;5048062;28;25107;-62
2022/05/29 09:46:33;;;;;;;5.53;1.83;;;12.80;99.90;;;;;;5049898;28;25058;-63
2022/05/29 09:52:09;;;;;;;4.53;1.75;;;13.00;99.90;;;;;;5048825;28;25157;-60
2022/05/29 09:54:44;;;;;;;4.03;0.80;;;13.00;99.90;;;;;;5049958;28;25102;-61
2022/05/29 09:57:12;;;;;;;2.40;0.70;;;13.00;99.90;;;;;;5050796;28;25049;-61
2022/05/29 09:59:43;;;;;;;1.00;0.77;;;12.80;99.90;;;;;;5051574;28;25141;-62
2022/05/29 10:02:21;;;;;;;4.97;1.00;;;13.00;99.90;;;;;;5050557;28;25080;-61
2022/05/29 10:04:52;;;;;;;1.10;0.52;;;13.50;99.90;;;;;;5050919;28;25085;-63
2022/05/29 10:07:34;;;;;;;2.95;0.55;;;13.50;99.90;;;;;;5048166;28;25083;-61
2022/05/29 10:10:02;;;;;;;4.68;0.60;;;13.80;99.90;;;;;;5046682;28;25084;-62
2022/05/29 10:12:39;;;;;;;2.08;0.45;;;14.00;99.90;;;;;;5047229;28;25169;-62
2022/05/29 10:15:12;;;;;;;0.93;0.47;;;14.60;99.90;;;;;;5045238;28;25102;-63
2022/05/29 10:17:39;;;;;;;1.50;0.40;;;13.90;99.90;;;;;;5053178;28;25057;-61
2022/05/29 10:20:31;;;;;;;7.45;0.52;;;13.80;99.90;;;;;;5046649;28;25056;-61
2022/05/29 10:23:07;;;;;;;1.92;0.47;;;13.80;99.90;;;;;;5049656;28;25081;-63
2022/05/29 10:25:37;;;;;;;4.03;0.85;;;13.80;99.90;;;;;;5050032;28;25101;-62
2022/05/29 10:28:15;;;;;;;4.53;1.20;;;13.50;99.90;;;;;;5053284;28;25087;-61
2022/05/29 10:30:49;;;;;;;2.95;0.90;;;13.60;99.90;;;;;;5060297;28;25060;-61
2022/05/29 10:33:21;;;;;;;2.75;0.50;;;14.00;99.90;;;;;;5056719;28;25074;-61
2022/05/29 10:35:47;;;;;;;2.58;0.90;;;14.20;99.90;;;;;;5050587;28;25060;-63
2022/05/29 10:38:22;;;;;;;2.83;0.57;;;14.40;99.90;;;;;;5050801;28;25105;-60
2022/05/29 10:40:54;;;;;;;2.25;0.70;;;14.70;99.90;;;;;;5049314;28;25070;-63
2022/05/29 10:43:50;;;;;;;4.80;1.38;;;14.70;99.90;;;;;;5054297;28;25095;-61
2022/05/29 10:46:19;;;;;;;6.35;1.15;;;13.70;99.90;;;;;;5051635;28;25053;-61
2022/05/29 10:49:18;;;;;;;7.60;1.70;;;12.90;99.90;;;;;;5053684;28;24839;-61
2022/05/29 10:52:17;;;;;;;7.85;1.52;;;12.40;99.90;;;;;;5048293;28;25121;-60
2022/05/29 10:54:52;;;;;;;6.13;1.30;;;12.00;99.90;;;;;;5051511;28;25100;-62
2022/05/29 10:57:42;;;;;;;6.95;1.70;;;11.70;99.90;;;;;;5054683;28;25082;-62
2022/05/29 11:00:17;;;;;;;4.20;1.30;;;11.70;99.90;;;;;;5049026;28;25082;-62
2022/05/29 11:03:23;;;;;;;9.75;2.08;;;11.60;99.90;;;;;;5050616;28;25070;-63
2022/05/29 11:06:26;;;;;;;7.80;1.92;;;11.40;99.90;;;;;;5021050;28;25140;-62
2022/05/29 11:09:07;;;;;;;9.00;2.50;;;11.30;99.90;;;;;;5022608;28;25112;-63
2022/05/29 11:11:59;;;;;;;11.32;2.30;;;11.40;99.90;;;;;;5043471;28;25129;-61
2022/05/29 11:14:30;;;;;;;9.70;1.70;;;11.60;99.90;;;;;;5056867;28;25143;-63
2022/05/29 11:17:06;;;;;;;8.30;2.20;;;11.80;99.90;;;;;;5057812;28;25086;-62
2022/05/29 11:19:38;;;;;;;9.30;2.20;;;11.60;99.90;;;;;;5057066;28;25062;-62
2022/05/29 11:22:34;;;;;;;10.77;2.88;;;11.70;99.90;;;;;;5057336;28;25125;-61
2022/05/29 11:25:11;;;;;;;9.65;2.10;;;12.00;99.90;;;;;;5056881;28;25084;-62
2022/05/29 11:27:59;;;;;;;6.90;2.00;;;12.40;99.90;;;;;;5053174;28;25076;-66
2022/05/29 11:30:49;;;;;;;11.20;2.47;;;12.50;99.90;;;;;;5057215;28;25065;-61
2022/05/29 11:33:38;;;;;;;10.70;2.58;;;12.70;99.90;;;;;;5055151;28;25062;-61
2022/05/29 11:36:16;;;;;;;8.52;2.88;;;12.70;99.90;;;;;;5056028;28;25074;-63
2022/05/29 11:39:04;;;;;;;10.07;1.98;;;12.50;99.90;;;;;;5053825;28;25077;-62
2022/05/29 11:41:36;;;;;;;10.18;2.42;;;12.30;99.90;;;;;;5052788;28;25104;-62
2022/05/29 11:44:21;;;;;;;;;;;12.40;99.90;;;;;;5054286;28;25081;-62
2022/05/29 11:52:50;;;;;;;8.13;2.08;;;12.10;99.90;;;;;;5061561;28;25049;-65
2022/05/29 11:55:26;;;;;;;13.98;3.38;;;12.50;99.90;;;;;;5059187;28;25175;-61
2022/05/29 11:58:13;;;;;;;12.60;2.63;;;12.70;99.90;;;;;;5056520;28;25151;-61
2022/05/29 12:00:47;;;;;;;11.43;2.72;;;13.10;99.90;;;;;;5055932;28;25119;-61
2022/05/29 12:03:44;;;;;;;7.32;1.83;;;13.30;99.90;;;;;;5055279;28;25084;-62
2022/05/29 12:06:33;;;;;;;6.78;1.90;;;13.50;99.90;;;;;;5058024;28;25094;-61
2022/05/29 12:09:30;;;;;;;8.65;2.47;;;13.40;99.90;;;;;;5056558;28;25070;-62
2022/05/29 12:12:05;;;;;;;8.63;1.83;;;13.30;99.90;;;;;;5055766;28;25145;-62
2022/05/29 12:14:35;;;;;;;8.73;1.45;;;13.40;99.90;;;;;;5054530;28;25110;-63
2022/05/29 12:17:23;;;;;;;5.78;1.42;;;13.50;99.90;;;;;;5056229;28;25110;-63
2022/05/29 12:20:05;;;;;;;5.47;1.35;;;13.30;99.90;;;;;;5052425;28;25139;-63
2022/05/29 12:22:36;;;;;;;6.97;1.60;;;13.30;99.90;;;;;;5055395;28;25069;-61
2022/05/29 12:25:21;;;;;;;4.78;1.50;;;13.20;99.90;;;;;;5059025;28;25070;-64
2022/05/29 12:27:47;;;;;;;5.88;1.42;;;13.50;99.90;;;;;;5055207;28;25077;-62
2022/05/29 12:30:38;;;;;;;4.85;1.33;;;13.80;99.90;;;;;;5059652;22;25060;-69
2022/05/29 12:33:15;;;;;;;10.95;2.50;;;13.70;99.90;;;;;;5048087;28;25142;-68
2022/05/29 12:36:08;;;;;;;9.40;2.05;;;13.60;99.90;;;;;;5057639;28;25170;-71
2022/05/29 12:38:45;;;;;;;8.73;1.67;;;13.70;99.90;;;;;;5074361;28;25099;-69
2022/05/29 12:41:14;;;;;;;7.50;1.50;;;13.80;99.90;;;;;;5074803;28;25097;-69
2022/05/29 12:44:18;;;;;;;6.13;1.48;;;13.90;99.90;;;;;;5075402;28;25079;-68
2022/05/29 12:47:13;;;;;;;6.07;1.20;;;13.90;99.90;;;;;;5069945;28;25146;-68
2022/05/29 12:50:15;;;;;;;10.15;1.92;;;13.80;99.30;;;;;;5070650;28;25065;-70
2022/05/29 12:53:16;;;;;;;5.65;1.33;;;13.90;99.90;;;;;;5069700;28;25068;-70
2022/05/29 12:56:09;;;;;;;24.10;5.65;;;13.70;99.80;;;;;;5044051;28;25151;-68
2022/05/29 12:58:41;;;;;;;3.90;1.52;;;13.80;99.90;;;;;;5075723;28;25074;-66
2022/05/29 13:01:24;;;;;;;5.10;1.30;;;13.90;99.90;;;;;;5085225;28;25076;-68
2022/05/29 13:04:20;;;;;;;6.88;2.10;;;13.80;99.90;;;;;;5067975;28;25123;-68
2022/05/29 13:07:11;;;;;;;5.18;2.00;;;13.90;99.90;;;;;;5062023;28;25139;-69
2022/05/29 13:09:58;;;;;;;4.40;1.65;;;13.90;99.90;;;;;;5066445;28;25137;-69
2022/05/29 13:12:38;;;;;;;10.10;2.95;;;13.90;99.90;;;;;;5063918;28;25133;-70
2022/05/29 13:15:11;;;;;;;3.08;1.42;;;13.90;99.90;;;;;;5061513;28;25142;-69
2022/05/29 13:17:38;;;;;;;4.85;1.40;;;13.80;99.90;;;;;;5055234;28;25096;-69
2022/05/29 13:20:06;;;;;;;9.25;2.60;;;13.90;99.90;;;;;;5062606;28;25078;-69
2022/05/29 13:22:56;;;;;;;8.02;1.50;;;13.90;99.90;;;;;;5062726;28;25062;-68
2022/05/29 13:25:50;;;;;;;7.03;1.83;;;14.00;99.90;;;;;;5061444;28;25068;-70
2022/05/29 13:28:47;;;;;;;12.10;2.08;;;13.80;99.90;;;;;;5053707;28;25057;-69
2022/05/29 13:31:14;;;;;;;8.68;3.60;;;14.20;99.90;;;;;;5062643;28;25074;-70
2022/05/29 13:33:44;;;;;;;6.05;1.77;;;14.30;98.30;;;;;;5060157;28;25055;-71
2022/05/29 13:36:31;;;;;;;6.75;1.10;;;14.10;97.60;;;;;;5067428;28;25083;-67
2022/05/29 13:38:56;;;;;;;4.15;0.95;;;14.20;98.70;;;;;;5068015;28;25069;-67
2022/05/29 13:41:50;;;;;;;3.35;1.02;;;14.20;95.50;;;;;;5069454;28;25072;-67
2022/05/29 13:44:43;;;;;;;5.28;1.38;;;14.20;97.80;;;;;;5072435;28;25103;-69
2022/05/29 13:47:24;;;;;;;7.75;1.00;;;14.00;98.80;;;;;;5061998;28;25054;-67
2022/05/29 13:49:57;;;;;;;3.65;1.10;;;13.90;97.90;;;;;;5060639;28;25101;-68
2022/05/29 13:52:33;;;;;;;5.28;1.50;;;13.70;98.60;;;;;;5063201;28;25160;-70